createdAt,value
2023-04-21T00:01:32.716Z,7.56
2023-04-21T00:05:27.817Z,7.58
2023-04-21T00:09:19.761Z,7.60
2023-04-21T00:13:10.656Z,7.59
2023-04-21T00:16:58.611Z,7.52
2023-04-21T00:20:55.565Z,7.43
2023-04-21T00:24:29.653Z,7.38
2023-04-21T00:28:15.657Z,7.35
2023-04-21T00:32:01.652Z,7.36
2023-04-21T00:35:49.563Z,7.37
2023-04-21T00:39:29.606Z,7.38
2023-04-21T00:43:09.569Z,7.40
2023-04-21T00:46:46.945Z,7.43
2023-04-21T00:50:37.564Z,7.48
2023-04-21T00:54:07.663Z,7.55
2023-04-21T01:01:50.686Z,7.66
2023-04-21T01:05:40.591Z,7.67
2023-04-21T01:09:36.622Z,7.66
2023-04-21T01:13:12.617Z,7.65
2023-04-21T01:16:52.823Z,7.63
2023-04-21T01:20:47.582Z,7.59
2023-04-21T01:24:30.015Z,7.57
2023-04-21T01:28:49.658Z,7.56
2023-04-21T01:32:40.680Z,7.56
2023-04-21T01:36:35.942Z,7.55
2023-04-21T01:40:14.620Z,7.56
2023-04-21T01:44:15.598Z,7.55
2023-04-21T01:48:13.712Z,7.55
2023-04-21T01:52:03.584Z,7.51
2023-04-21T01:55:47.986Z,7.46
2023-04-21T01:59:01.648Z,7.43
2023-04-21T02:01:28.435Z,7.42
2023-04-21T02:03:55.812Z,7.41
2023-04-21T02:06:22.302Z,7.39
2023-04-21T02:08:48.830Z,7.34
2023-04-21T02:11:15.614Z,7.30
2023-04-21T02:14:14.643Z,7.25
2023-04-21T02:18:17.596Z,7.19
2023-04-21T02:22:15.632Z,7.16
2023-04-21T02:25:50.573Z,7.15
2023-04-21T02:29:28.838Z,7.16
2023-04-21T02:32:26.060Z,7.18
2023-04-21T02:36:07.661Z,7.19
2023-04-21T02:40:03.641Z,7.21
2023-04-21T02:43:35.775Z,7.24
2023-04-21T02:46:06.729Z,7.27
2023-04-21T02:48:35.708Z,7.29
2023-04-21T02:51:04.157Z,7.30
2023-04-21T02:53:31.066Z,7.29
2023-04-21T02:55:57.584Z,7.29
2023-04-21T02:58:24.719Z,7.25
2023-04-21T03:00:52.099Z,7.21
2023-04-21T03:03:19.334Z,7.23
2023-04-21T03:05:46.516Z,7.22
2023-04-21T03:08:13.077Z,7.22
2023-04-21T03:10:39.708Z,7.23
2023-04-21T03:13:06.295Z,7.25
2023-04-21T03:15:33.012Z,7.26
2023-04-21T03:18:01.519Z,7.28
2023-04-21T03:20:28.522Z,7.28
2023-04-21T03:22:55.120Z,7.29
2023-04-21T03:25:22.095Z,7.28
2023-04-21T03:27:49.062Z,7.29
2023-04-21T03:30:15.688Z,7.32
2023-04-21T03:32:42.361Z,7.36
2023-04-21T03:35:10.294Z,7.41
2023-04-21T03:37:36.989Z,7.45
2023-04-21T03:40:06.423Z,7.50
2023-04-21T03:42:33.232Z,7.57
2023-04-21T03:45:02.665Z,7.65
2023-04-21T03:47:32.837Z,7.72
2023-04-21T03:49:59.936Z,7.77
2023-04-21T03:52:26.394Z,7.81
2023-04-21T03:54:52.860Z,7.83
2023-04-21T03:57:19.465Z,7.83
2023-04-21T03:59:45.923Z,7.81
2023-04-21T04:02:12.528Z,7.77
2023-04-21T04:04:39.429Z,7.75
2023-04-21T04:07:08.116Z,7.71
2023-04-21T04:09:34.917Z,7.69
2023-04-21T04:12:02.724Z,7.67
2023-04-21T04:14:32.612Z,7.65
2023-04-21T04:17:00.197Z,7.64
2023-04-21T04:19:34.861Z,7.62
2023-04-21T04:22:01.587Z,7.62
2023-04-21T04:24:28.897Z,7.61
2023-04-21T04:26:57.326Z,7.61
2023-04-21T04:29:24.305Z,7.60
2023-04-21T04:32:05.921Z,7.58
2023-04-21T04:34:36.970Z,7.58
2023-04-21T04:37:04.458Z,7.58
2023-04-21T04:39:37.049Z,7.60
2023-04-21T04:42:08.415Z,7.59
2023-04-21T04:44:35.925Z,7.59
2023-04-21T04:47:03.887Z,7.61
2023-04-21T04:49:37.963Z,7.62
2023-04-21T04:52:04.863Z,7.64
2023-04-21T04:54:32.247Z,7.65
2023-04-21T04:56:59.236Z,7.66
2023-04-21T04:59:25.819Z,7.68
2023-04-21T05:01:52.766Z,7.70
2023-04-21T05:04:20.447Z,7.74
2023-04-21T05:06:47.429Z,7.78
2023-04-21T05:09:14.041Z,7.82
2023-04-21T05:11:40.684Z,7.83
2023-04-21T05:14:07.275Z,7.84
2023-04-21T05:16:34.096Z,7.84
2023-04-21T05:19:01.670Z,7.83
2023-04-21T05:21:28.860Z,7.82
2023-04-21T05:23:56.560Z,7.81
2023-04-21T05:26:25.016Z,7.82
2023-04-21T05:28:51.558Z,7.82
2023-04-21T05:31:18.034Z,7.83
2023-04-21T05:33:44.575Z,7.85
2023-04-21T05:36:11.584Z,7.88
2023-04-21T05:38:38.758Z,7.92
2023-04-21T05:41:05.520Z,7.96
2023-04-21T05:43:33.549Z,7.98
2023-04-21T05:46:01.751Z,8.00
2023-04-21T05:49:01.957Z,8.04
2023-04-21T05:52:54.698Z,8.12
2023-04-21T05:56:20.559Z,8.17
2023-04-21T06:00:13.680Z,8.24
2023-04-21T06:04:35.702Z,8.34
2023-04-21T06:08:33.917Z,8.44
2023-04-21T06:12:02.942Z,8.48
2023-04-21T06:15:29.750Z,8.54
2023-04-21T06:19:36.523Z,8.65
2023-04-21T06:22:45.201Z,8.74
2023-04-21T06:25:40.396Z,8.82
2023-04-21T06:28:31.103Z,8.91
2023-04-21T06:31:51.835Z,9.03
2023-04-21T06:35:12.781Z,9.21
2023-04-21T06:38:17.425Z,9.33
2023-04-21T06:47:03.991Z,9.61
2023-04-21T06:49:41.886Z,9.79
2023-04-21T06:51:50.775Z,9.93
2023-04-21T06:54:20.266Z,10.09
2023-04-21T06:57:06.968Z,10.28
2023-04-21T06:59:58.618Z,10.46
2023-04-21T07:02:32.190Z,10.59
2023-04-21T07:05:28.457Z,10.69
2023-04-21T07:08:05.169Z,10.73
2023-04-21T07:10:47.846Z,10.76
2023-04-21T07:13:17.604Z,10.88
2023-04-21T07:16:04.231Z,11.00
2023-04-21T07:18:34.546Z,11.08
2023-04-21T07:21:17.375Z,11.10
2023-04-21T07:27:22.771Z,11.38
2023-04-21T07:29:49.296Z,11.49
2023-04-21T07:32:15.977Z,11.63
2023-04-21T07:34:45.591Z,11.71
2023-04-21T07:37:15.638Z,11.76
2023-04-21T07:39:42.150Z,11.81
2023-04-21T07:42:09.954Z,11.83
2023-04-21T07:44:42.360Z,11.87
2023-04-21T07:47:09.300Z,11.97
2023-04-21T07:49:38.410Z,12.05
2023-04-21T07:52:34.561Z,12.08
2023-04-21T07:55:04.620Z,12.15
2023-04-21T07:57:33.084Z,12.21
2023-04-21T07:59:59.831Z,12.26
2023-04-21T08:02:26.379Z,12.15
2023-04-21T08:04:52.916Z,12.24
2023-04-21T08:07:19.500Z,12.38
2023-04-21T08:09:46.161Z,12.53
2023-04-21T08:12:12.937Z,12.67
2023-04-21T08:14:39.997Z,12.76
2023-04-21T08:17:06.525Z,12.80
2023-04-21T08:19:33.045Z,12.83
2023-04-21T08:21:59.797Z,12.89
2023-04-21T08:24:26.515Z,12.95
2023-04-21T08:26:53.020Z,13.01
2023-04-21T08:29:19.668Z,13.09
2023-04-21T08:31:46.233Z,13.19
2023-04-21T08:34:15.417Z,13.25
2023-04-21T08:36:44.364Z,13.32
2023-04-21T08:39:12.484Z,13.35
2023-04-21T08:41:41.108Z,13.37
2023-04-21T08:44:10.957Z,13.37
2023-04-21T08:46:38.564Z,13.52
2023-04-21T08:49:13.000Z,13.65
2023-04-21T08:51:41.439Z,13.77
2023-04-21T08:54:12.153Z,13.77
2023-04-21T08:56:43.119Z,13.77
2023-04-21T08:59:09.938Z,13.81
2023-04-21T09:02:09.788Z,13.85
2023-04-21T09:04:45.820Z,13.90
2023-04-21T09:07:38.830Z,13.91
2023-04-21T09:10:06.756Z,13.96
2023-04-21T09:12:33.576Z,13.97
2023-04-21T09:15:04.941Z,14.04
2023-04-21T09:17:33.043Z,14.00
2023-04-21T09:20:17.091Z,14.21
2023-04-21T09:22:44.417Z,14.41
2023-04-21T09:25:19.690Z,14.53
2023-04-21T09:27:51.484Z,14.67
2023-04-21T09:30:20.017Z,14.58
2023-04-21T09:32:47.003Z,14.66
2023-04-21T09:35:13.850Z,14.69
2023-04-21T09:37:43.914Z,14.85
2023-04-21T09:40:14.250Z,14.98
2023-04-21T09:42:43.126Z,14.92
2023-04-21T09:47:42.341Z,15.19
2023-04-21T09:50:12.815Z,15.26
2023-04-21T09:52:42.476Z,15.36
2023-04-21T09:55:13.024Z,15.30
2023-04-21T09:57:42.332Z,15.32
2023-04-21T10:00:12.122Z,15.47
2023-04-21T10:02:44.359Z,15.50
2023-04-21T10:05:12.362Z,15.44
2023-04-21T10:07:39.640Z,15.57
2023-04-21T10:10:12.671Z,15.63
2023-04-21T10:12:39.237Z,15.82
2023-04-21T10:15:22.205Z,15.76
2023-04-21T10:17:50.150Z,16.03
2023-04-21T10:20:17.503Z,16.26
2023-04-21T10:22:44.052Z,16.37
2023-04-21T10:25:11.050Z,16.38
2023-04-21T10:27:40.714Z,16.43
2023-04-21T10:30:26.202Z,16.41
2023-04-21T10:33:05.571Z,16.23
2023-04-21T10:35:57.610Z,16.10
2023-04-21T10:38:43.969Z,16.13
2023-04-21T10:41:27.559Z,16.16
2023-04-21T10:44:01.608Z,15.86
2023-04-21T10:46:47.637Z,15.94
2023-04-21T10:49:39.431Z,16.25
2023-04-21T10:53:19.822Z,16.21
2023-04-21T10:56:50.343Z,16.22
2023-04-21T10:59:31.732Z,16.15
2023-04-21T11:02:05.794Z,15.96
2023-04-21T11:04:35.579Z,16.14
2023-04-21T11:08:19.907Z,16.29
2023-04-21T11:10:59.545Z,16.80
2023-04-21T11:13:44.913Z,17.32
2023-04-21T11:16:38.357Z,17.64
2023-04-21T11:19:14.802Z,17.71
2023-04-21T11:21:42.184Z,17.36
2023-04-21T11:24:09.067Z,17.78
2023-04-21T11:30:07.458Z,17.93
2023-04-21T11:32:55.301Z,18.21
2023-04-21T11:35:23.807Z,18.27
2023-04-21T11:38:02.272Z,18.87
2023-04-21T11:40:49.928Z,19.21
2023-04-21T11:43:21.824Z,19.54
2023-04-21T11:45:59.807Z,20.02
2023-04-21T11:48:56.128Z,20.35
2023-04-21T11:51:46.435Z,20.33
2023-04-21T12:38:24.104Z,20.14
2023-04-21T12:41:08.439Z,19.66
2023-04-21T12:43:40.791Z,19.12
2023-04-21T12:44:35.072Z,21.14
2023-04-21T12:46:09.619Z,19.40
2023-04-21T12:48:41.706Z,19.74
2023-04-21T12:51:08.693Z,19.81
2023-04-21T12:53:38.277Z,20.06
2023-04-21T12:56:08.859Z,20.16
2023-04-21T12:58:37.147Z,20.45
2023-04-21T13:01:06.409Z,20.65
2023-04-21T13:03:57.431Z,20.75
2023-04-21T13:06:51.750Z,20.45
2023-04-21T13:09:36.249Z,19.82
2023-04-21T13:13:04.996Z,19.24
2023-04-21T13:15:26.154Z,19.31
2023-04-21T13:17:55.652Z,18.64
2023-04-21T13:20:22.566Z,18.48
2023-04-21T13:22:49.664Z,18.52
2023-04-21T13:25:25.829Z,18.16
2023-04-21T13:27:58.779Z,17.72
2023-04-21T13:30:25.424Z,17.43
2023-04-21T13:32:52.193Z,17.06
2023-04-21T13:35:19.089Z,16.89
2023-04-21T13:37:50.602Z,17.10
2023-04-21T13:40:17.593Z,17.17
2023-04-21T13:42:46.864Z,17.10
2023-04-21T13:45:13.460Z,17.16
2023-04-21T13:47:40.124Z,17.27
2023-04-21T13:50:08.329Z,17.30
2023-04-21T13:52:35.821Z,17.33
2023-04-21T13:55:04.498Z,17.34
2023-04-21T13:57:31.354Z,17.27
2023-04-21T13:59:58.004Z,17.27
2023-04-21T14:02:25.232Z,17.35
2023-04-21T14:09:04.490Z,17.64
2023-04-21T14:43:21.769Z,17.55
2023-04-21T14:47:01.490Z,17.16
2023-04-21T14:49:41.343Z,17.20
2023-04-21T14:52:26.972Z,17.11
2023-04-21T14:55:14.244Z,16.91
2023-04-21T15:13:37.580Z,17.05
2023-04-21T15:16:05.926Z,16.80
2023-04-21T15:18:33.451Z,16.69
2023-04-21T15:21:13.796Z,16.62
2023-04-21T15:23:41.111Z,16.59
2023-04-21T15:26:07.786Z,16.54
2023-04-21T15:28:35.766Z,16.34
2023-04-21T15:31:02.643Z,16.19
2023-04-21T15:33:29.618Z,16.20
2023-04-21T15:35:56.308Z,16.24
2023-04-21T15:38:23.043Z,16.15
2023-04-21T15:41:00.084Z,16.40
2023-04-21T15:43:27.268Z,16.75
2023-04-21T15:45:53.887Z,17.45
2023-04-21T15:48:21.401Z,18.58
2023-04-21T15:50:48.317Z,19.45
2023-04-21T15:53:16.072Z,19.72
2023-04-21T15:55:43.919Z,20.03
2023-04-21T15:58:12.697Z,20.08
2023-04-21T16:00:41.149Z,19.71
2023-04-21T16:03:08.594Z,19.43
2023-04-21T16:05:35.901Z,19.04
2023-04-21T16:08:02.526Z,18.25
2023-04-21T16:10:29.060Z,18.13
2023-04-21T16:12:55.712Z,17.77
2023-04-21T16:15:24.749Z,17.54
2023-04-21T16:17:52.496Z,17.15
2023-04-21T16:20:19.465Z,16.86
2023-04-21T16:22:53.367Z,16.74
2023-04-21T16:25:20.316Z,16.61
2023-04-21T16:27:46.853Z,16.48
2023-04-21T16:30:13.463Z,16.41
2023-04-21T16:32:40.162Z,16.27
2023-04-21T16:35:07.100Z,16.06
2023-04-21T16:37:35.289Z,15.80
2023-04-21T16:40:05.078Z,15.53
2023-04-21T16:42:32.559Z,15.43
2023-04-21T16:45:02.374Z,15.35
2023-04-21T16:47:30.246Z,15.29
2023-04-21T16:49:56.956Z,15.14
2023-04-21T16:52:24.877Z,15.05
2023-04-21T16:54:51.404Z,14.97
2023-04-21T16:57:18.181Z,14.88
2023-04-21T16:59:45.677Z,14.85
2023-04-21T17:02:12.402Z,14.78
2023-04-21T17:04:39.395Z,14.74
2023-04-21T17:07:06.524Z,14.68
2023-04-21T17:09:33.104Z,14.61
2023-04-21T17:12:00.452Z,14.56
2023-04-21T17:14:26.921Z,14.51
2023-04-21T17:16:54.441Z,14.47
2023-04-21T17:19:21.869Z,14.42
2023-04-21T17:21:48.820Z,14.35
2023-04-21T17:24:15.569Z,14.29
2023-04-21T17:26:42.672Z,14.25
2023-04-21T17:29:09.600Z,14.22
2023-04-21T17:31:37.016Z,14.19
2023-04-21T17:34:03.599Z,14.16
2023-04-21T17:36:30.338Z,14.14
2023-04-21T17:38:58.331Z,14.11
2023-04-21T17:41:25.970Z,14.05
2023-04-21T17:43:54.532Z,13.99
2023-04-21T17:46:24.779Z,13.92
2023-04-21T17:48:51.950Z,13.87
2023-04-21T17:51:18.657Z,13.81
2023-04-21T17:53:46.650Z,13.76
2023-04-21T17:56:13.877Z,13.72
2023-04-21T17:58:41.602Z,13.67
2023-04-21T18:01:08.097Z,13.62
2023-04-21T18:03:35.836Z,13.57
2023-04-21T18:06:04.031Z,13.53
2023-04-21T18:08:30.753Z,13.47
2023-04-21T18:10:57.235Z,13.42
2023-04-21T18:13:23.759Z,13.38
2023-04-21T18:15:50.376Z,13.33
2023-04-21T18:18:16.856Z,13.28
2023-04-21T18:20:43.389Z,13.24
2023-04-21T18:23:09.990Z,13.21
2023-04-21T18:25:42.512Z,13.18
2023-04-21T18:28:11.870Z,13.17
2023-04-21T18:30:39.031Z,13.14
2023-04-21T18:33:05.612Z,13.13
2023-04-21T18:35:33.169Z,13.09
2023-04-21T18:38:00.048Z,13.06
2023-04-21T18:40:26.703Z,13.03
2023-04-21T18:42:53.381Z,12.98
2023-04-21T18:45:19.846Z,12.95
2023-04-21T18:47:46.487Z,12.91
2023-04-21T18:50:13.025Z,12.88
2023-04-21T18:52:39.618Z,12.85
2023-04-21T18:55:06.659Z,12.83
2023-04-21T18:57:33.277Z,12.83
2023-04-21T18:59:59.904Z,12.81
2023-04-21T19:02:28.400Z,12.79
2023-04-21T19:04:55.308Z,12.78
2023-04-21T19:07:21.866Z,12.76
2023-04-21T19:09:48.522Z,12.75
2023-04-21T19:12:15.873Z,12.74
2023-04-21T19:14:47.146Z,12.73
2023-04-21T19:17:15.015Z,12.71
2023-04-21T19:19:42.149Z,12.70
2023-04-21T19:22:08.582Z,12.66
2023-04-21T19:24:35.167Z,12.62
2023-04-21T19:27:02.839Z,12.58
2023-04-21T19:29:29.639Z,12.54
2023-04-21T19:31:57.637Z,12.53
2023-04-21T19:34:24.628Z,12.51
2023-04-21T19:36:52.140Z,12.50
2023-04-21T19:39:19.130Z,12.49
2023-04-21T19:41:45.727Z,12.47
2023-04-21T19:44:12.345Z,12.45
2023-04-21T19:46:41.843Z,12.42
2023-04-21T19:49:12.158Z,12.40
2023-04-21T19:51:39.175Z,12.37
2023-04-21T19:54:11.258Z,12.35
2023-04-21T19:56:40.964Z,12.31
2023-04-21T19:59:07.495Z,12.29
2023-04-21T20:01:34.251Z,12.26
2023-04-21T20:04:02.273Z,12.24
2023-04-21T20:06:29.052Z,12.21
2023-04-21T20:08:55.592Z,12.17
2023-04-21T20:11:22.974Z,12.11
2023-04-21T20:13:50.012Z,12.07
2023-04-21T20:16:17.566Z,12.04
2023-04-21T20:18:44.263Z,11.99
2023-04-21T20:21:10.925Z,11.94
2023-04-21T20:23:37.469Z,11.90
2023-04-21T20:26:04.102Z,11.85
2023-04-21T20:28:31.766Z,11.82
2023-04-21T20:30:59.968Z,11.78
2023-04-21T20:33:27.362Z,11.72
2023-04-21T20:35:54.492Z,11.67
2023-04-21T20:38:23.252Z,11.63
2023-04-21T20:40:51.622Z,11.58
2023-04-21T20:43:18.199Z,11.52
2023-04-21T20:45:46.436Z,11.47
2023-04-21T20:48:12.976Z,11.41
2023-04-21T20:50:39.928Z,11.37
2023-04-21T20:53:07.764Z,11.33
2023-04-21T20:55:34.833Z,11.28
2023-04-21T20:58:02.200Z,11.24
2023-04-21T21:00:31.879Z,11.21
2023-04-21T21:02:58.877Z,11.17
2023-04-21T21:05:28.292Z,11.13
2023-04-21T21:07:55.941Z,11.11
2023-04-21T21:10:22.548Z,11.08
2023-04-21T21:12:49.086Z,11.05
2023-04-21T21:15:15.627Z,11.03
2023-04-21T21:17:42.255Z,11.02
2023-04-21T21:20:09.340Z,11.01
2023-04-21T21:22:38.736Z,10.99
2023-04-21T21:25:05.703Z,10.95
2023-04-21T21:27:32.209Z,10.91
2023-04-21T21:29:58.853Z,10.86
2023-04-21T21:32:25.415Z,10.81
2023-04-21T21:34:51.915Z,10.75
2023-04-21T21:37:18.648Z,10.70
2023-04-21T21:39:45.349Z,10.65
2023-04-21T21:42:12.085Z,10.60
2023-04-21T21:45:12.910Z,10.57
2023-04-21T21:47:52.813Z,10.54
2023-04-21T21:50:20.545Z,10.51
2023-04-21T21:52:49.640Z,10.47
2023-04-21T21:55:55.918Z,10.44
2023-04-21T21:58:46.189Z,10.43
2023-04-21T22:01:50.561Z,10.41
2023-04-21T22:05:03.864Z,10.40
2023-04-21T22:07:49.115Z,10.41
2023-04-21T22:10:33.731Z,10.40
2023-04-21T22:13:29.885Z,10.40
2023-04-21T22:15:57.463Z,10.38
2023-04-21T22:18:53.912Z,10.35
2023-04-21T22:21:37.264Z,10.26
2023-04-21T22:24:22.467Z,10.18
2023-04-21T22:27:19.893Z,10.13
2023-04-21T22:30:19.895Z,10.09
2023-04-21T22:33:24.868Z,10.06
2023-04-21T22:36:23.504Z,10.05
2023-04-21T22:39:21.047Z,10.04
2023-04-21T22:42:02.565Z,10.04
2023-04-21T22:45:04.473Z,10.05
2023-04-21T22:48:01.137Z,10.07
2023-04-21T22:50:59.840Z,10.09
2023-04-21T22:54:14.086Z,10.11
2023-04-21T22:57:13.864Z,10.12
2023-04-21T22:59:56.518Z,10.14
2023-04-21T23:02:41.294Z,10.17
2023-04-21T23:05:35.143Z,10.20
2023-04-21T23:08:59.898Z,10.23
2023-04-21T23:12:13.908Z,10.26
2023-04-21T23:15:23.885Z,10.32
2023-04-21T23:18:10.856Z,10.35
2023-04-21T23:24:30.579Z,10.37
2023-04-21T23:27:19.931Z,10.32
2023-04-21T23:30:16.974Z,10.26
2023-04-21T23:33:13.025Z,10.17
2023-04-21T23:36:49.909Z,10.06
2023-04-21T23:39:43.109Z,9.87
2023-04-21T23:42:47.139Z,9.81
2023-04-21T23:45:48.685Z,9.78
2023-04-21T23:48:59.954Z,9.75
2023-04-21T23:51:42.056Z,9.75
2023-04-21T23:54:27.924Z,9.77
2023-04-21T23:56:56.802Z,9.75
2023-04-21T23:59:53.873Z,9.75
